Home > Products > Valid Products > TAF

000
FTUS42 KJAX 230500
TAFGNV
TAF
KGNV 230521Z 2306/2406 01004KT P6SM FEW250
     FM231500 04008KT P6SM SKC
     FM240000 VRB02KT P6SM SKC=



000
FTUS42 KJAX 230500
TAFSSI
TAF
KSSI 230521Z 2306/2406 VRB03KT P6SM SKC
     FM231400 03011KT P6SM SKC
     FM240000 04005KT P6SM SKC=



000
FTUS42 KJAX 230500
TAFCRG
TAF
KCRG 230521Z 2306/2406 01003KT P6SM FEW250
     FM231500 02010KT P6SM SKC
     FM240000 VRB03KT P6SM SKC=



000
FTUS42 KJAX 230500
TAFJAX
TAF
KJAX 230521Z 2306/2406 VRB02KT P6SM FEW250
     FM231500 03009KT P6SM SKC
     FM240000 VRB02KT P6SM SKC=



000
FTUS42 KJAX 222300
TAFSSI
TAF
KSSI 222320Z 2300/2324 01005KT P6SM SKC
     FM231400 03011KT P6SM SKC=



000
FTUS42 KJAX 222300
TAFGNV
TAF
KGNV 222320Z 2300/2324 VRB02KT P6SM SKC
     FM231400 04008KT P6SM FEW030=



000
FTUS42 KJAX 222300
TAFJAX
TAF
KJAX 222320Z 2300/2324 05005KT P6SM SKC
     FM230200 36003KT P6SM SKC
     FM231400 03009KT P6SM SKC=



000
FTUS42 KJAX 222300
TAFCRG
TAF
KCRG 222320Z 2300/2324 04006KT P6SM SKC
     FM230200 01003KT P6SM SKC
     FM231400 01011KT P6SM SKC=



000
FTUS42 KJAX 222000 AAB
TAFSSI
TAF AMD
KSSI 222030Z 2221/2318 05011KT P6SM SKC
     FM230000 02006KT P6SM SKC
     FM231400 03011KT P6SM SKC=



000
FTUS42 KJAX 222000 AAB
TAFSSI
TAF AMD
KSSI 222030Z 2221/2318 05011KT P6SM SKC
     FM230000 02006KT P6SM SKC
     FM231400 03011KT P6SM SKC=



000
FTUS42 KJAX 221800 AAA
TAFSSI
TAF AMD
KSSI 221846Z 2219/2318 03012KT P6SM SKC
     FM230000 02006KT P6SM SKC
     FM231400 03011KT P6SM SKC=



000
FTUS42 KJAX 221800 AAA
TAFCRG
TAF AMD
KCRG 221845Z 2219/2318 03011KT P6SM SKC
     FM230000 04006KT P6SM SKC
     FM231400 01011KT P6SM SKC=



000
FTUS42 KJAX 221700
TAFCRG
TAF
KCRG 221734Z 2218/2318 36012KT P6SM SKC
     FM230000 04006KT P6SM SKC
     FM231400 01011KT P6SM SKC=



000
FTUS42 KJAX 221700
TAFCRG
TAF
KCRG 221734Z 2218/2318 36012KT P6SM SKC
     FM230000 04006KT P6SM SKC
     FM231400 01011KT P6SM SKC=



000
FTUS42 KJAX 221700
TAFSSI
TAF
KSSI 221734Z 2218/2318 01013G18KT P6SM SKC
     FM230000 02006KT P6SM SKC
     FM231400 03011KT P6SM SKC=



000
FTUS42 KJAX 221700
TAFGNV
TAF
KGNV 221734Z 2218/2318 01008KT P6SM SKC
     FM230000 VRB02KT P6SM SKC
     FM231400 04008KT P6SM FEW030=



000
FTUS42 KJAX 221700
TAFSSI
TAF
KSSI 221734Z 2218/2318 01013G18KT P6SM SKC
     FM230000 02006KT P6SM SKC
     FM231400 03011KT P6SM SKC=



000
FTUS42 KJAX 221700
TAFJAX
TAF
KJAX 221734Z 2218/2318 04009KT P6SM SKC
     FM230200 01003KT P6SM SKC
     FM231400 03009KT P6SM SKC=



000
FTUS42 KJAX 221700
TAFJAX
TAF
KJAX 221734Z 2218/2318 04009KT P6SM SKC
     FM230200 01003KT P6SM SKC
     FM231400 03009KT P6SM SKC=



000
FTUS42 KJAX 221700
TAFGNV
TAF
KGNV 221734Z 2218/2318 01008KT P6SM SKC
     FM230000 VRB02KT P6SM SKC
     FM231400 04008KT P6SM FEW030=



000
FTUS42 KJAX 221700 AAA
TAFGNV
TAF AMD
KGNV 221713Z 2217/2312 36008KT P6SM SKC
     FM230000 VRB02KT P6SM SKC=



000
FTUS42 KJAX 221700 AAB
TAFSSI
TAF AMD
KSSI 221713Z 2217/2312 01011KT P6SM SKC
     FM230000 02006KT P6SM SKC=



000
FTUS42 KJAX 221700 AAA
TAFGNV
TAF AMD
KGNV 221713Z 2217/2312 36008KT P6SM SKC
     FM230000 VRB02KT P6SM SKC=



000
FTUS42 KJAX 221700 AAB
TAFSSI
TAF AMD
KSSI 221713Z 2217/2312 01011KT P6SM SKC
     FM230000 02006KT P6SM SKC=



000
FTUS42 KJAX 221700 AAB
TAFCRG
TAF AMD
KCRG 221712Z 2217/2312 03011KT P6SM SKC
     FM230000 VRB02KT P6SM SKC=



000
FTUS42 KJAX 221700 AAB
TAFCRG
TAF AMD
KCRG 221712Z 2217/2312 03011KT P6SM SKC
     FM230000 VRB02KT P6SM SKC=



000
FTUS42 KJAX 221500 AAA
TAFCRG
TAF AMD
KCRG 221542Z 2216/2312 36012KT P6SM SKC
     FM230000 VRB02KT P6SM SKC=



000
FTUS42 KJAX 221500 AAA
TAFCRG
TAF AMD
KCRG 221542Z 2216/2312 36012KT P6SM SKC
     FM230000 VRB02KT P6SM SKC=



000
FTUS42 KJAX 221500 AAA
TAFSSI
TAF AMD
KSSI 221541Z 2216/2312 01013G18KT P6SM SKC
     FM230000 02006KT P6SM SKC=



000
FTUS42 KJAX 221500 AAA
TAFSSI
TAF AMD
KSSI 221541Z 2216/2312 01013G18KT P6SM SKC
     FM230000 02006KT P6SM SKC=



000
FTUS42 KJAX 221100
TAFSSI
TAF
KSSI 221121Z 2212/2312 35005KT P6SM SKC
     FM221400 01012KT P6SM SKC
     FM230000 02006KT P6SM SKC=



000
FTUS42 KJAX 221100
TAFGNV
TAF
KGNV 221121Z 2212/2312 34004KT P6SM SKC
     FM221500 02008KT P6SM SKC
     FM230000 VRB02KT P6SM SKC=



000
FTUS42 KJAX 221100
TAFCRG
TAF
KCRG 221121Z 2212/2312 35005KT P6SM SKC
     FM221500 01011KT P6SM SKC
     FM230000 VRB02KT P6SM SKC=



000
FTUS42 KJAX 221100
TAFJAX
TAF
KJAX 221121Z 2212/2312 34004KT P6SM SKC
     FM221500 01010KT P6SM SKC
     FM230000 VRB02KT P6SM SKC=



000
FTUS42 KJAX 220500
TAFSSI
TAF
KSSI 220521Z 2206/2306 VRB02KT P6SM SKC
     FM221400 01012KT P6SM SKC
     FM230000 02006KT P6SM SKC=



000
FTUS42 KJAX 220500
TAFGNV
TAF
KGNV 220521Z 2206/2306 VRB02KT P6SM SKC
     FM221500 02008KT P6SM SKC
     FM230000 VRB02KT P6SM SKC=



000
FTUS42 KJAX 220500
TAFJAX
TAF
KJAX 220521Z 2206/2306 VRB02KT P6SM SKC
     FM221500 01010KT P6SM SKC
     FM230000 VRB02KT P6SM SKC=



000
FTUS42 KJAX 220500
TAFCRG
TAF
KCRG 220521Z 2206/2306 VRB02KT P6SM SKC
     FM221500 01010KT P6SM SKC
     FM230000 VRB02KT P6SM SKC=



000
FTUS42 KJAX 220500
TAFJAX
TAF
KJAX 220521Z 2206/2306 VRB02KT P6SM SKC
     FM221500 01010KT P6SM SKC
     FM230000 VRB02KT P6SM SKC=



000
FTUS42 KJAX 220500
TAFCRG
TAF
KCRG 220521Z 2206/2306 VRB02KT P6SM SKC
     FM221500 01010KT P6SM SKC
     FM230000 VRB02KT P6SM SKC=



000
FTUS42 KJAX 220500
TAFGNV
TAF
KGNV 220521Z 2206/2306 VRB02KT P6SM SKC
     FM221500 02008KT P6SM SKC
     FM230000 VRB02KT P6SM SKC=



000
FTUS42 KJAX 220500
TAFSSI
TAF
KSSI 220521Z 2206/2306 VRB02KT P6SM SKC
     FM221400 01012KT P6SM SKC
     FM230000 02006KT P6SM SKC=



000
FTUS42 KJAX 212300
TAFCRG
TAF
KCRG 212329Z 2200/2224 VRB02KT P6SM SKC
     FM221300 01010KT P6SM FEW250=



000
FTUS42 KJAX 212300
TAFJAX
TAF
KJAX 212329Z 2200/2224 VRB02KT P6SM SKC
     FM221400 01010KT P6SM FEW250=



000
FTUS42 KJAX 212300
TAFSSI
TAF
KSSI 212329Z 2200/2224 VRB02KT P6SM SKC
     FM221200 36010KT P6SM SKC=



000
FTUS42 KJAX 212300
TAFGNV
TAF
KGNV 212329Z 2200/2224 VRB02KT P6SM FEW250
     FM221400 01008KT P6SM FEW250=



000
FTUS42 KJAX 211700
TAFSSI
TAF
KSSI 211720Z 2118/2218 05008KT P6SM SKC
     FM220000 VRB02KT P6SM SKC
     FM221200 36010KT P6SM SKC=



000
FTUS42 KJAX 211700
TAFCRG
TAF
KCRG 211720Z 2118/2218 01008KT P6SM FEW040 SCT250
     FM220000 VRB02KT P6SM FEW250
     FM221300 36010KT P6SM FEW250=



000
FTUS42 KJAX 211700
TAFGNV
TAF
KGNV 211720Z 2118/2218 34008KT P6SM FEW040 BKN250
     FM220000 VRB02KT P6SM SCT250
     FM221400 36008KT P6SM FEW250=



000
FTUS42 KJAX 211700
TAFJAX
TAF
KJAX 211720Z 2118/2218 35006KT P6SM FEW040 SCT250
     FM220000 VRB02KT P6SM FEW250
     FM221400 36010KT P6SM FEW250=



000
FTUS42 KJAX 211300 AAA
TAFJAX
TAF AMD
KJAX 211304Z 2113/2212 31006KT P6SM SCT250
      TEMPO 2113/2114 2SM BR SCT002
     FM220000 VRB03KT P6SM SKC=



000
FTUS42 KJAX 211200 AAB
TAFJAX
TAF AMD
KJAX 211208Z 2112/2212 00000KT 5SM BR SCT250
      TEMPO 2112/2113 1/2SM FG BKN002
     FM211300 31006KT P6SM SCT250
     FM220000 VRB03KT P6SM SKC=



000
FTUS42 KJAX 211200 AAB
TAFJAX
TAF AMD
KJAX 211208Z 2112/2212 00000KT 5SM BR SCT250
      TEMPO 2112/2113 1/2SM FG BKN002
     FM211300 31006KT P6SM SCT250
     FM220000 VRB03KT P6SM SKC=



000
FTUS42 KJAX 211100 AAA
TAFJAX
TAF AMD
KJAX 211123Z 2111/2212 00000KT 5SM BR SCT250
      TEMPO 2111/2112 1SM BR SCT002
     FM211300 31006KT P6SM SCT250
     FM220000 VRB03KT P6SM SKC=



000
FTUS42 KJAX 211100 AAA
TAFJAX
TAF AMD
KJAX 211123Z 2111/2212 00000KT 5SM BR SCT250
      TEMPO 2111/2112 1SM BR SCT002
     FM211300 31006KT P6SM SCT250
     FM220000 VRB03KT P6SM SKC=



000
FTUS42 KJAX 211100
TAFGNV
TAF
KGNV 211121Z 2112/2212 00000KT P6SM BKN250
     FM211500 34005KT P6SM SCT250
     FM220000 VRB03KT P6SM SKC=



000
FTUS42 KJAX 211100
TAFCRG
TAF
KCRG 211121Z 2112/2212 00000KT P6SM BKN250
     FM211500 32006KT P6SM SCT250
     FM220000 VRB03KT P6SM SKC=



000
FTUS42 KJAX 211100
TAFJAX
TAF
KJAX 211121Z 2112/2212 00000KT P6SM SCT250
     FM211500 31006KT P6SM SCT250
     FM220000 VRB03KT P6SM SKC=



000
FTUS42 KJAX 211100
TAFSSI
TAF
KSSI 211121Z 2112/2212 VRB03KT P6SM BKN250
     FM211500 31006KT P6SM SCT250
     FM220000 32004KT P6SM SKC=



000
FTUS42 KJAX 211100
TAFSSI
TAF
KSSI 211121Z 2112/2212 VRB03KT P6SM BKN250
     FM211500 31006KT P6SM SCT250
     FM220000 32004KT P6SM SKC=



000
FTUS42 KJAX 211100
TAFCRG
TAF
KCRG 211121Z 2112/2212 00000KT P6SM BKN250
     FM211500 32006KT P6SM SCT250
     FM220000 VRB03KT P6SM SKC=



000
FTUS42 KJAX 211100
TAFJAX
TAF
KJAX 211121Z 2112/2212 00000KT P6SM SCT250
     FM211500 31006KT P6SM SCT250
     FM220000 VRB03KT P6SM SKC=



000
FTUS42 KJAX 211100
TAFGNV
TAF
KGNV 211121Z 2112/2212 00000KT P6SM BKN250
     FM211500 34005KT P6SM SCT250
     FM220000 VRB03KT P6SM SKC=



000
FTUS42 KJAX 211000 AAB
TAFGNV
TAF AMD
KGNV 211039Z 2111/2206 00000KT P6SM BKN250
     FM211500 34005KT P6SM SCT250
     FM220000 VRB03KT P6SM SKC=



000
FTUS42 KJAX 211000 AAB
TAFGNV
TAF AMD
KGNV 211039Z 2111/2206 00000KT P6SM BKN250
     FM211500 34005KT P6SM SCT250
     FM220000 VRB03KT P6SM SKC=



000
FTUS42 KJAX 211000 AAC
TAFJAX
TAF AMD
KJAX 211031Z 2111/2206 00000KT P6SM SCT250
     FM211500 31006KT P6SM SCT250
     FM220000 VRB03KT P6SM SKC=



000
FTUS42 KJAX 211000 AAC
TAFJAX
TAF AMD
KJAX 211031Z 2111/2206 00000KT P6SM SCT250
     FM211500 31006KT P6SM SCT250
     FM220000 VRB03KT P6SM SKC=



000
FTUS42 KJAX 210900 AAB
TAFJAX
TAF AMD
KJAX 210920Z 2109/2206 00000KT 6SM BR BKN250
      TEMPO 2109/2112 3SM BR
     FM211500 31006KT P6SM SCT250
     FM220000 VRB03KT P6SM SKC=



000
FTUS42 KJAX 210800 AAA
TAFJAX
TAF AMD
KJAX 210820Z 2108/2206 00000KT 5SM BR BKN250
      TEMPO 2108/2112 1SM BR
     FM211500 31006KT P6SM SCT250
     FM220000 VRB03KT P6SM SKC=



000
FTUS42 KJAX 210800 AAA
TAFGNV
TAF AMD
KGNV 210809Z 2108/2206 00000KT P6SM BKN250
      TEMPO 2110/2112 3SM BR
     FM211300 34005KT P6SM SCT250
     FM220000 VRB03KT P6SM SKC=



000
FTUS42 KJAX 210800 AAA
TAFSSI
TAF AMD
KSSI 210808Z 2108/2206 25004KT P6SM SCT035 BKN250
     FM211500 31006KT P6SM SCT250
     FM220000 VRB04KT P6SM SKC=



000
FTUS42 KJAX 210500
TAFGNV
TAF
KGNV 210521Z 2106/2206 00000KT P6SM SCT035 BKN250
     FM210900 00000KT 5SM BR SCT250
      TEMPO 2110/2112 2SM BR
     FM211300 34005KT P6SM SCT250
     FM220000 VRB03KT P6SM SKC=



000
FTUS42 KJAX 210500
TAFSSI
TAF
KSSI 210521Z 2106/2206 19004KT P6SM SCT035 BKN250
      TEMPO 2108/2112 BKN025
     FM211500 31006KT P6SM SCT250
     FM220000 VRB04KT P6SM SKC=



000
FTUS42 KJAX 210500
TAFJAX
TAF
KJAX 210521Z 2106/2206 00000KT P6SM BKN250
      TEMPO 2109/2112 4SM BR
     FM211500 31006KT P6SM SCT250
     FM220000 VRB03KT P6SM SKC=



000
FTUS42 KJAX 210500
TAFCRG
TAF
KCRG 210521Z 2106/2206 00000KT P6SM BKN250
     FM211500 32006KT P6SM SCT250
     FM220000 VRB03KT P6SM SKC=



000
FTUS42 KJAX 210400 AAB
TAFSSI
TAF AMD
KSSI 210431Z 2105/2124 15004KT P6SM SCT035 BKN250
     FM210700 00000KT P6SM SCT020 BKN050
      TEMPO 2107/2111 5SM BR BKN015
     FM211500 31006KT P6SM SCT045 SCT250
     FM212000 29004KT P6SM SCT050=



000
FTUS42 KJAX 210400 AAB
TAFSSI
TAF AMD
KSSI 210431Z 2105/2124 15004KT P6SM SCT035 BKN250
     FM210700 00000KT P6SM SCT020 BKN050
      TEMPO 2107/2111 5SM BR BKN015
     FM211500 31006KT P6SM SCT045 SCT250
     FM212000 29004KT P6SM SCT050=



000
FTUS42 KJAX 210200 AAA
TAFSSI
TAF AMD
KSSI 210236Z 2103/2124 15004KT P6SM SCT035 BKN045 BKN250
      TEMPO 2103/2107 BKN030
     FM210700 00000KT P6SM SCT020 BKN050
      TEMPO 2107/2111 5SM BR BKN015
     FM211500 31006KT P6SM SCT045 SCT250
     FM212000 29004KT P6SM SCT050=



000
FTUS42 KJAX 202300
TAFGNV
TAF
KGNV 202320Z 2100/2124 VRB03KT P6SM BKN060 BKN250
     FM210600 00000KT 5SM BR SCT250
      TEMPO 2108/2112 2SM BR
     FM211500 34006KT P6SM FEW250=



000
FTUS42 KJAX 202300
TAFJAX
TAF
KJAX 202320Z 2100/2124 13006KT P6SM SCT030 BKN250
     FM210600 00000KT P6SM FEW030 SCT250
      TEMPO 2108/2112 4SM BR
     FM211500 31006KT P6SM FEW250
     FM212000 28004KT P6SM SCT050=



000
FTUS42 KJAX 202300
TAFSSI
TAF
KSSI 202320Z 2100/2124 15007KT P6SM BKN050 BKN250
     FM210300 13004KT P6SM SCT035 BKN045 BKN250
      TEMPO 2103/2107 BKN030
     FM210700 00000KT P6SM SCT020 BKN040
      TEMPO 2107/2111 5SM BR BKN015
     FM211500 31006KT P6SM SCT045 SCT250
     FM212000 29004KT P6SM SCT050=



000
FTUS42 KJAX 202300
TAFCRG
TAF
KCRG 202320Z 2100/2124 13006KT P6SM SCT030 BKN250
     FM210600 00000KT P6SM FEW030 SCT250
      TEMPO 2108/2112 4SM BR
     FM211500 31006KT P6SM FEW250
     FM212000 28004KT P6SM SCT050=



000
FTUS42 KJAX 201700
TAFGNV
TAF
KGNV 201720Z 2018/2118 12008KT P6SM BKN040
     FM210000 13004KT P6SM SCT030 BKN250
     FM210600 00000KT 5SM BR SCT250
      TEMPO 2110/2112 2SM BR
     FM211500 31006KT P6SM FEW250=



000
FTUS42 KJAX 201700
TAFCRG
TAF
KCRG 201720Z 2018/2118 12008KT P6SM BKN035
     FM210000 13004KT P6SM SCT030 BKN250
     FM210600 00000KT P6SM SCT250
      TEMPO 2110/2112 4SM BR
     FM211500 31006KT P6SM FEW250=



000
FTUS42 KJAX 201700
TAFJAX
TAF
KJAX 201720Z 2018/2118 12008KT P6SM BKN035
     FM210000 13004KT P6SM SCT030 BKN250
     FM210600 00000KT P6SM SCT250
      TEMPO 2110/2112 4SM BR
     FM211500 31006KT P6SM FEW250=



000
FTUS42 KJAX 201700
TAFSSI
TAF
KSSI 201720Z 2018/2118 12008KT P6SM BKN035
     FM210300 13004KT P6SM SCT030 BKN250
     FM210900 00000KT P6SM SCT250
      TEMPO 2110/2112 5SM BR
     FM211500 31006KT P6SM FEW250=



000
FTUS42 KJAX 201100
TAFGNV
TAF
KGNV 201120Z 2012/2112 00000KT P6SM BKN035
     FM201600 07008KT P6SM BKN040
     FM202300 08003KT P6SM SCT030 BKN250=



000
FTUS42 KJAX 201100
TAFJAX
TAF
KJAX 201120Z 2012/2112 06003KT P6SM BKN035
     FM201400 07008KT P6SM BKN040
     FM202300 08004KT P6SM SCT030 BKN250=



000
FTUS42 KJAX 201100
TAFSSI
TAF
KSSI 201120Z 2012/2112 07003KT P6SM SCT030
     FM201500 08008KT P6SM BKN035
     FM210000 10005KT P6SM BKN030=



000
FTUS42 KJAX 201100
TAFCRG
TAF
KCRG 201120Z 2012/2112 06003KT P6SM BKN035
     FM201400 07008KT P6SM BKN040
     FM202300 08004KT P6SM SCT030 BKN250=



    US Dept of Commerce
    National Oceanic and Atmospheric Administration
    National Weather Service
    1325 East West Highway
    Silver Spring, MD 20910
    Page Author: NWS Internet Services Team
Disclaimer
Information Quality
Credits
Glossary
Privacy Policy
Freedom of Information Act (FOIA)
About Us
Career Opportunities